Time;durP1;ratioP1;P1;durP2;ratioP2;P2;SDS_P1;SDS_P2;PMS_P1;PMS_P2;Temp;Humidity;BMP_temperature;BMP_pressure;BME280_temperature;BME280_humidity;BME280_pressure;Samples;Min_cycle;Max_cycle;Signal;HPM_P1;HPM_P2
2021/06/16 00:01:34;;;;;;;3.45;1.30;;;;;;;;;;4955489;28;20058;-90
2021/06/16 00:04:00;;;;;;;5.35;1.25;;;;;;;;;;4973223;28;20034;-91
2021/06/16 00:06:26;;;;;;;3.40;0.93;;;;;;;;;;4973034;28;20058;-90
2021/06/16 00:08:52;;;;;;;1.90;1.10;;;;;;;;;;4973303;28;20106;-90
2021/06/16 00:11:18;;;;;;;2.35;1.15;;;;;;;;;;4968814;28;20106;-91
2021/06/16 00:13:44;;;;;;;2.35;1.13;;;;;;;;;;4954971;28;20058;-90
2021/06/16 00:16:10;;;;;;;6.07;1.17;;;;;;;;;;4955908;28;20081;-90
2021/06/16 00:18:36;;;;;;;3.35;1.23;;;;;;;;;;4955635;28;20058;-92
2021/06/16 00:21:02;;;;;;;2.58;1.63;;;;;;;;;;4955855;28;20066;-90
2021/06/16 00:23:28;;;;;;;1.98;1.00;;;;;;;;;;4971446;28;20023;-90
2021/06/16 00:25:54;;;;;;;2.50;1.20;;;;;;;;;;4955465;28;21134;-89
2021/06/16 00:28:20;;;;;;;3.88;1.00;;;;;;;;;;4972826;28;20055;-91
2021/06/16 00:30:47;;;;;;;5.10;1.15;;;;;;;;;;4955387;28;20491;-90
2021/06/16 00:33:14;;;;;;;3.70;1.05;;;;;;;;;;4972510;28;20273;-90
2021/06/16 00:35:40;;;;;;;2.40;1.23;;;;;;;;;;4949279;28;20043;-90
2021/06/16 00:38:06;;;;;;;5.55;1.30;;;;;;;;;;4958805;28;20042;-90
2021/06/16 00:40:32;;;;;;;3.58;1.55;;;;;;;;;;4954791;28;20117;-90
2021/06/16 00:43:00;;;;;;;2.28;1.30;;;;;;;;;;4974181;28;20022;-90
2021/06/16 00:45:27;;;;;;;2.78;1.10;;;;;;;;;;4975693;28;20070;-90
2021/06/16 00:47:56;;;;;;;2.30;1.23;;;;;;;;;;4958655;28;20110;-89
2021/06/16 00:50:49;;;;;;;3.80;1.45;;;;;;;;;;4975601;28;20407;-89
2021/06/16 00:53:15;;;;;;;2.55;1.70;;;;;;;;;;4961000;28;20093;-89
2021/06/16 00:55:41;;;;;;;3.17;1.10;;;;;;;;;;4973982;28;20443;-89
2021/06/16 00:58:08;;;;;;;3.47;2.08;;;;;;;;;;4958178;28;20077;-90
2021/06/16 01:00:40;;;;;;;2.72;1.65;;;;;;;;;;4957860;28;20122;-90
2021/06/16 01:03:32;;;;;;;4.28;1.38;;;;;;;;;;4974254;28;20031;-91
2021/06/16 01:06:08;;;;;;;1.67;1.00;;;21.10;43.80;;;;;;4964974;28;20031;-89
2021/06/16 01:08:37;;;;;;;1.90;1.42;;;;;;;;;;4957802;28;20038;-90
2021/06/16 01:11:09;;;;;;;5.55;1.83;;;21.00;44.40;;;;;;4957450;28;20053;-90
2021/06/16 01:13:38;;;;;;;2.80;1.20;;;;;;;;;;4973757;28;20077;-89
2021/06/16 01:16:08;;;;;;;4.28;1.50;;;;;;;;;;4956475;29;20035;-90
2021/06/16 01:18:37;;;;;;;4.75;2.20;;;;;;;;;;4973309;28;20027;-89
2021/06/16 01:21:04;;;;;;;4.05;1.52;;;;;;;;;;4974714;28;20039;-90
2021/06/16 01:23:30;;;;;;;4.15;2.03;;;;;;;;;;4973969;28;20034;-90
2021/06/16 01:26:16;;;;;;;4.50;2.15;;;;;;;;;;4975732;28;20428;-90
2021/06/16 01:28:44;;;;;;;1.83;1.30;;;20.90;44.70;;;;;;4980781;28;20038;-89
2021/06/16 01:31:10;;;;;;;1.85;1.27;;;;;;;;;;4973955;28;20270;-89
2021/06/16 01:33:37;;;;;;;3.17;1.60;;;;;;;;;;4970837;28;20049;-90
2021/06/16 01:36:03;;;;;;;4.37;0.97;;;;;;;;;;4974183;28;20038;-89
2021/06/16 01:38:30;;;;;;;3.08;1.55;;;;;;;;;;4974730;28;20396;-89
2021/06/16 01:40:58;;;;;;;1.70;1.05;;;;;;;;;;4974618;28;20034;-90
2021/06/16 01:43:24;;;;;;;1.90;1.33;;;;;;;;;;4974414;28;20027;-89
2021/06/16 01:45:51;;;;;;;2.33;1.27;;;;;;;;;;4974830;28;20031;-89
2021/06/16 01:48:18;;;;;;;2.97;1.35;;;;;;;;;;4973084;28;20050;-89
2021/06/16 01:50:44;;;;;;;1.85;1.42;;;;;;;;;;4954624;28;20085;-89
2021/06/16 01:53:11;;;;;;;4.38;1.48;;;;;;;;;;4973159;28;20034;-90
2021/06/16 01:55:38;;;;;;;3.17;1.30;;;;;;;;;;4973400;28;20086;-90
2021/06/16 01:58:04;;;;;;;1.95;1.20;;;;;;;;;;4974620;28;20034;-89
2021/06/16 02:00:31;;;;;;;3.20;1.55;;;;;;;;;;4956867;28;20034;-90
2021/06/16 02:02:57;;;;;;;3.92;1.90;;;;;;;;;;4956707;28;20027;-89
2021/06/16 02:05:24;;;;;;;4.90;1.40;;;20.50;46.00;;;;;;4956639;28;20396;-89
2021/06/16 02:08:02;;;;;;;4.57;1.30;;;20.60;45.90;;;;;;4957922;28;20050;-90
2021/06/16 02:10:36;;;;;;;3.03;1.85;;;20.60;45.80;;;;;;4972839;28;20446;-87
2021/06/16 02:13:03;;;;;;;2.15;1.20;;;;;;;;;;4971532;28;20093;-88
2021/06/16 02:15:32;;;;;;;1.38;1.00;;;;;;;;;;4971447;28;20035;-90
2021/06/16 02:18:00;;;;;;;4.03;1.50;;;;;;;;;;4973580;28;20030;-90
2021/06/16 02:20:27;;;;;;;4.88;1.55;;;;;;;;;;4973887;28;20023;-90
2021/06/16 02:22:53;;;;;;;2.28;1.10;;;;;;;;;;4971235;28;20023;-88
2021/06/16 02:25:19;;;;;;;1.85;0.93;;;;;;;;;;4974063;28;20027;-90
2021/06/16 02:27:45;;;;;;;2.45;1.45;;;;;;;;;;4970151;28;20030;-89
2021/06/16 02:30:12;;;;;;;1.92;1.35;;;;;;;;;;4974106;28;20031;-89
2021/06/16 02:32:38;;;;;;;2.77;1.20;;;;;;;;;;4969583;28;20475;-89
2021/06/16 02:35:07;;;;;;;7.60;1.55;;;;;;;;;;4969658;28;20043;-89
2021/06/16 02:37:35;;;;;;;1.40;1.02;;;;;;;;;;4954401;28;20031;-89
2021/06/16 02:40:07;;;;;;;1.95;1.65;;;;;;;;;;4953670;29;20027;-90
2021/06/16 02:42:33;;;;;;;14.95;1.83;;;;;;;;;;4969408;28;20499;-90
2021/06/16 02:45:04;;;;;;;2.33;1.50;;;;;;;;;;4954088;28;20404;-90
2021/06/16 02:47:30;;;;;;;3.65;1.55;;;;;;;;;;4954230;28;20038;-89
2021/06/16 02:49:59;;;;;;;2.73;1.47;;;;;;;;;;4953948;28;20487;-90
2021/06/16 02:52:26;;;;;;;3.55;1.63;;;;;;;;;;4935675;29;20028;-89
2021/06/16 02:54:54;;;;;;;1.92;1.05;;;;;;;;;;4953097;29;20496;-91
2021/06/16 02:57:22;;;;;;;2.45;1.23;;;;;;;;;;4954842;28;20050;-89
2021/06/16 02:59:48;;;;;;;2.50;1.27;;;;;;;;;;4954091;29;20023;-89
2021/06/16 03:02:21;;;;;;;5.68;1.85;;;20.20;47.20;;;;;;4966840;28;20661;-90
2021/06/16 03:04:48;;;;;;;1.58;1.15;;;;;;;;;;4969129;28;20504;-91
2021/06/16 03:07:14;;;;;;;4.13;1.97;;;;;;;;;;4953355;28;20027;-89
2021/06/16 03:09:41;;;;;;;2.22;1.58;;;;;;;;;;4953608;28;20279;-89
2021/06/16 03:12:07;;;;;;;2.28;1.70;;;;;;;;;;4953945;28;20810;-90
2021/06/16 03:14:35;;;;;;;5.22;1.48;;;20.10;47.20;;;;;;4953263;28;20039;-89
2021/06/16 03:17:02;;;;;;;2.33;1.58;;;;;;;;;;4953353;29;20031;-91
2021/06/16 03:19:28;;;;;;;3.30;1.17;;;20.30;47.40;;;;;;4968882;28;20019;-89
2021/06/16 03:21:56;;;;;;;3.58;1.92;;;;;;;;;;4952939;29;20047;-90
2021/06/16 03:24:22;;;;;;;;;;;20.30;47.00;;;;;;4967281;28;20020;-91
2021/06/16 03:26:49;;;;;;;2.70;1.40;;;;;;;;;;4943047;29;19914;-89
2021/06/16 03:29:17;;;;;;;1.60;1.17;;;20.00;47.80;;;;;;4941285;29;20377;-90
2021/06/16 03:31:43;;;;;;;;;;;20.10;47.30;;;;;;4970842;28;20671;-90
2021/06/16 03:34:09;;;;;;;2.28;1.65;;;;;;;;;;4979727;28;19914;-90
2021/06/16 03:36:37;;;;;;;4.95;1.80;;;20.30;47.10;;;;;;4974234;28;20050;-89
2021/06/16 03:39:04;;;;;;;6.88;1.75;;;;;;;;;;4955774;28;20106;-90
2021/06/16 03:41:30;;;;;;;9.40;1.45;;;;;;;;;;4973728;28;20030;-89
2021/06/16 03:43:57;;;;;;;3.20;1.20;;;;;;;;;;4972154;28;20077;-91
2021/06/16 03:46:23;;;;;;;4.07;1.58;;;;;;;;;;4972904;28;20019;-89
2021/06/16 03:48:52;;;;;;;2.28;1.63;;;20.10;48.00;;;;;;4968633;28;20038;-90
2021/06/16 03:51:18;;;;;;;1.58;1.23;;;20.00;48.50;;;;;;4968245;28;20023;-90
2021/06/16 03:53:44;;;;;;;2.65;1.70;;;;;;;;;;4972785;28;20114;-89
2021/06/16 03:56:10;;;;;;;2.53;1.60;;;;;;;;;;4970752;28;20095;-89
2021/06/16 03:58:36;;;;;;;2.47;1.52;;;;;;;;;;4972260;28;20174;-90
2021/06/16 04:01:03;;;;;;;3.92;1.55;;;20.00;48.50;;;;;;4968293;28;20118;-90
2021/06/16 04:03:29;;;;;;;9.70;1.90;;;;;;;;;;4949407;29;20031;-91
2021/06/16 04:05:56;;;;;;;2.22;1.25;;;19.90;48.70;;;;;;4964430;28;21100;-88
2021/06/16 04:08:22;;;;;;;2.23;1.47;;;;;;;;;;4972816;28;20019;-89
2021/06/16 04:10:49;;;;;;;4.20;1.30;;;19.90;48.80;;;;;;4972210;28;20775;-90
2021/06/16 04:13:16;;;;;;;;;;;19.90;48.70;;;;;;4972404;28;20049;-91
2021/06/16 04:15:42;;;;;;;2.45;1.50;;;;;;;;;;4971351;28;19918;-89
2021/06/16 04:18:08;;;;;;;1.73;1.40;;;;;;;;;;4956598;28;20026;-90
2021/06/16 04:20:34;;;;;;;2.85;1.38;;;;;;;;;;4975926;28;20039;-90
2021/06/16 04:23:00;;;;;;;8.15;2.03;;;;;;;;;;4975841;28;20027;-89
2021/06/16 04:25:26;;;;;;;1.45;1.05;;;;;;;;;;4975782;28;20026;-89
2021/06/16 04:27:53;;;;;;;2.67;1.05;;;;;;;;;;4958700;28;20524;-90
2021/06/16 04:30:21;;;;;;;4.50;1.55;;;19.90;49.20;;;;;;4975819;28;20030;-89
2021/06/16 04:32:47;;;;;;;2.15;1.48;;;;;;;;;;4975736;28;20042;-90
2021/06/16 04:35:13;;;;;;;3.55;2.20;;;;;;;;;;4975744;28;20108;-89
2021/06/16 04:37:39;;;;;;;4.05;1.95;;;;;;;;;;4975828;28;20022;-89
2021/06/16 04:40:07;;;;;;;3.30;2.35;;;20.70;47.90;;;;;;4976106;28;20109;-88
2021/06/16 04:42:33;;;;;;;;;;;21.00;46.60;;;;;;4958519;28;20031;-90
2021/06/16 04:44:59;;;;;;;2.72;1.42;;;;;;;;;;4958254;28;19917;-89
2021/06/16 04:47:25;;;;;;;3.13;1.60;;;;;;;;;;4975581;28;20022;-89
2021/06/16 04:49:51;;;;;;;4.63;2.00;;;;;;;;;;4974682;28;20027;-88
2021/06/16 04:52:17;;;;;;;2.00;1.58;;;;;;;;;;4971369;28;20027;-89
2021/06/16 04:54:43;;;;;;;6.53;2.20;;;;;;;;;;4971557;28;20053;-89
2021/06/16 04:57:09;;;;;;;3.20;1.90;;;;;;;;;;4958424;28;20023;-89
2021/06/16 04:59:35;;;;;;;2.15;1.30;;;20.60;47.10;;;;;;4957856;28;20026;-89
2021/06/16 05:02:02;;;;;;;6.63;2.17;;;20.50;47.10;;;;;;4975401;28;20031;-90
2021/06/16 05:04:28;;;;;;;2.75;1.77;;;20.50;47.10;;;;;;4975170;28;20038;-91
2021/06/16 05:06:57;;;;;;;4.45;1.98;;;;;;;;;;4975877;28;20387;-90
2021/06/16 05:09:23;;;;;;;2.40;1.73;;;;;;;;;;4975460;28;20045;-90
2021/06/16 05:11:50;;;;;;;3.72;1.88;;;;;;;;;;4974025;28;20113;-89
2021/06/16 05:14:16;;;;;;;4.40;2.17;;;;;;;;;;4977857;28;20034;-89
2021/06/16 05:16:42;;;;;;;3.95;2.33;;;;;;;;;;4991674;28;20432;-90
2021/06/16 05:19:15;;;;;;;4.15;1.75;;;;;;;;;;4958060;28;20065;-90
2021/06/16 05:21:41;;;;;;;2.85;1.70;;;;;;;;;;4974761;28;20031;-89
2021/06/16 05:24:07;;;;;;;3.38;1.75;;;;;;;;;;4974936;28;20408;-88
2021/06/16 05:26:36;;;;;;;3.00;1.38;;;;;;;;;;4954628;28;20697;-90
2021/06/16 05:29:02;;;;;;;3.70;1.92;;;;;;;;;;4973100;28;20031;-89
2021/06/16 05:31:28;;;;;;;2.88;1.98;;;;;;;;;;4956383;28;20043;-86
2021/06/16 05:33:54;;;;;;;3.00;1.90;;;;;;;;;;4960884;28;20043;-87
2021/06/16 05:36:20;;;;;;;3.97;1.33;;;;;;;;;;4967263;28;20035;-86
2021/06/16 05:38:46;;;;;;;2.20;1.42;;;;;;;;;;4968951;28;20226;-87
2021/06/16 05:41:12;;;;;;;1.63;1.50;;;;;;;;;;4970994;28;20038;-87
2021/06/16 05:43:38;;;;;;;3.45;1.77;;;;;;;;;;4956081;28;20023;-87
2021/06/16 05:46:04;;;;;;;4.78;3.22;;;;;;;;;;4971097;28;20250;-87
2021/06/16 05:48:30;;;;;;;10.40;4.00;;;;;;;;;;4968773;28;20491;-87
2021/06/16 05:50:56;;;;;;;6.35;3.42;;;;;;;;;;4970083;28;20034;-88
2021/06/16 05:53:22;;;;;;;8.25;3.58;;;;;;;;;;4972075;28;20031;-87
2021/06/16 05:55:48;;;;;;;9.80;3.45;;;;;;;;;;4969181;28;20049;-87
2021/06/16 05:58:14;;;;;;;3.60;2.22;;;;;;;;;;4970835;28;20019;-88
2021/06/16 06:00:40;;;;;;;8.32;2.58;;;;;;;;;;4950591;28;20445;-82
2021/06/16 06:03:06;;;;;;;4.55;2.00;;;22.50;44.40;;;;;;4968787;28;20026;-82
2021/06/16 06:05:32;;;;;;;4.03;2.50;;;;;;;;;;4968859;28;21433;-82
2021/06/16 06:07:58;;;;;;;4.80;2.88;;;;;;;;;;4968754;28;20171;-82
2021/06/16 06:10:24;;;;;;;3.42;2.05;;;;;;;;;;4968858;28;20047;-82
2021/06/16 06:12:50;;;;;;;7.28;3.83;;;;;;;;;;4968788;28;20102;-82
2021/06/16 06:15:17;;;;;;;8.38;4.10;;;;;;;;;;4968800;28;20747;-82
2021/06/16 06:17:43;;;;;;;10.10;4.05;;;22.80;43.40;;;;;;4968242;28;20045;-82
2021/06/16 06:20:10;;;;;;;10.65;3.55;;;22.90;45.80;;;;;;4968979;28;20023;-81
2021/06/16 06:22:36;;;;;;;15.97;4.00;;;;;;;;;;4968739;28;20380;-82
2021/06/16 06:25:03;;;;;;;6.82;3.88;;;23.30;44.60;;;;;;4967950;28;20089;-82
2021/06/16 06:27:29;;;;;;;9.40;3.83;;;;;;;;;;4968673;28;20062;-82
2021/06/16 06:29:55;;;;;;;8.43;3.60;;;23.50;54.60;;;;;;4966324;28;20058;-80
2021/06/16 06:32:20;;;;;;;12.07;4.20;;;;;;;;;;4967763;28;20042;-85
2021/06/16 06:34:46;;;;;;;9.95;4.18;;;;;;;;;;4951420;28;20122;-83
2021/06/16 06:37:12;;;;;;;11.77;3.47;;;;;;;;;;4969139;28;20057;-81
2021/06/16 06:39:41;;;;;;;7.72;3.60;;;;;;;;;;4968988;28;20042;-82
2021/06/16 06:42:07;;;;;;;10.35;4.43;;;;;;;;;;4969423;28;20031;-82
2021/06/16 06:44:33;;;;;;;8.93;3.22;;;;;;;;;;4967551;28;20027;-83
2021/06/16 06:46:59;;;;;;;7.85;3.08;;;;;;;;;;4969090;28;20085;-83
2021/06/16 06:49:25;;;;;;;7.10;2.60;;;;;;;;;;4970407;28;20027;-83
2021/06/16 06:51:51;;;;;;;6.15;3.35;;;;;;;;;;4969390;28;20560;-82
2021/06/16 06:54:17;;;;;;;9.30;3.05;;;;;;;;;;4976292;28;20038;-82
2021/06/16 06:56:43;;;;;;;7.68;3.35;;;;;;;;;;4975212;28;20589;-83
2021/06/16 06:59:09;;;;;;;7.32;2.83;;;;;;;;;;4968635;28;20102;-82
2021/06/16 07:01:35;;;;;;;8.75;2.35;;;;;;;;;;4969155;28;20059;-82
2021/06/16 07:04:01;;;;;;;6.32;3.17;;;;;;;;;;4977011;28;20081;-82
2021/06/16 07:06:29;;;;;;;9.63;3.22;;;26.00;39.40;;;;;;4971280;28;20035;-81
2021/06/16 07:08:55;;;;;;;6.75;2.67;;;;;;;;;;4969303;28;20553;-87
2021/06/16 07:11:21;;;;;;;6.25;2.38;;;;;;;;;;4957619;28;20041;-84
2021/06/16 07:13:47;;;;;;;10.25;2.42;;;;;;;;;;4974421;28;20027;-85
2021/06/16 07:16:13;;;;;;;6.97;2.50;;;;;;;;;;4970075;28;20758;-84
2021/06/16 07:18:39;;;;;;;6.22;2.45;;;;;;;;;;4968182;28;20026;-84
2021/06/16 07:21:05;;;;;;;4.28;1.95;;;;;;;;;;4964291;28;20561;-85
2021/06/16 07:23:32;;;;;;;3.58;1.75;;;;;;;;;;4966272;28;20050;-84
2021/06/16 07:25:58;;;;;;;7.40;3.03;;;;;;;;;;4968618;28;20397;-87
2021/06/16 07:28:23;;;;;;;4.63;1.98;;;;;;;;;;4969447;28;20035;-88
2021/06/16 07:30:50;;;;;;;2.45;1.48;;;;;;;;;;4969956;28;20114;-85
2021/06/16 07:33:16;;;;;;;9.07;1.52;;;;;;;;;;4964497;28;20055;-86
2021/06/16 07:35:44;;;;;;;6.88;2.00;;;;;;;;;;4970095;28;20038;-89
2021/06/16 07:38:10;;;;;;;3.03;1.52;;;;;;;;;;4967176;28;20081;-88
2021/06/16 07:40:36;;;;;;;6.93;1.58;;;;;;;;;;4969904;28;20031;-88
2021/06/16 07:43:03;;;;;;;6.70;1.17;;;;;;;;;;4968603;28;20027;-90
2021/06/16 07:45:29;;;;;;;4.93;2.08;;;;;;;;;;4962764;28;20511;-88
2021/06/16 07:47:55;;;;;;;5.38;1.60;;;;;;;;;;4967803;28;20042;-89
2021/06/16 07:50:21;;;;;;;2.33;1.33;;;;;;;;;;4961912;28;20027;-85
2021/06/16 07:52:47;;;;;;;3.47;1.23;;;;;;;;;;4965274;28;20031;-86
2021/06/16 07:55:13;;;;;;;4.03;1.15;;;;;;;;;;4965125;28;20093;-85
2021/06/16 07:57:39;;;;;;;8.03;1.03;;;;;;;;;;4969750;28;20182;-90
2021/06/16 08:00:06;;;;;;;6.78;1.13;;;;;;;;;;4969261;28;20086;-83
2021/06/16 08:02:32;;;;;;;4.75;1.13;;;;;;;;;;4961132;28;20035;-87
2021/06/16 08:04:58;;;;;;;6.47;1.23;;;;;;;;;;4971173;28;20653;-86
2021/06/16 08:07:24;;;;;;;4.45;1.15;;;;;;;;;;4973069;28;20034;-88
2021/06/16 08:09:50;;;;;;;2.28;1.50;;;;;;;;;;4970679;28;20041;-85
2021/06/16 08:12:16;;;;;;;4.57;0.98;;;;;;;;;;4968852;28;20526;-86
2021/06/16 08:14:43;;;;;;;1.90;0.80;;;;;;;;;;4969857;28;20042;-85
2021/06/16 08:17:09;;;;;;;1.77;0.82;;;36.20;23.20;;;;;;4969274;28;20031;-86
2021/06/16 08:19:36;;;;;;;2.15;1.02;;;36.40;22.20;;;;;;4971369;28;20121;-87
2021/06/16 08:22:04;;;;;;;1.85;0.88;;;36.50;22.00;;;;;;4971257;28;20194;-86
2021/06/16 08:24:30;;;;;;;3.28;1.20;;;;;;;;;;4952222;28;20031;-86
2021/06/16 08:26:56;;;;;;;2.08;0.55;;;;;;;;;;4964382;28;20031;-86
2021/06/16 08:29:22;;;;;;;2.78;0.93;;;;;;;;;;4969667;28;20026;-85
2021/06/16 08:31:48;;;;;;;1.40;0.88;;;;;;;;;;4968620;28;20039;-85
2021/06/16 08:34:14;;;;;;;2.38;1.05;;;;;;;;;;4972212;28;20045;-84
2021/06/16 08:36:41;;;;;;;2.22;1.00;;;;;;;;;;4970228;28;20478;-85
2021/06/16 08:39:07;;;;;;;3.63;1.08;;;;;;;;;;4970635;28;20034;-85
2021/06/16 08:41:34;;;;;;;1.33;0.70;;;38.30;19.80;;;;;;4968381;28;20034;-84
2021/06/16 08:44:00;;;;;;;6.47;1.13;;;;;;;;;;4970015;28;20054;-84
2021/06/16 08:46:27;;;;;;;3.40;1.00;;;;;;;;;;4968352;28;20019;-86
2021/06/16 08:48:53;;;;;;;4.18;0.95;;;;;;;;;;4970053;28;20073;-83
2021/06/16 08:51:19;;;;;;;3.20;0.80;;;;;;;;;;4969171;28;20050;-84
2021/06/16 08:53:45;;;;;;;3.22;0.80;;;;;;;;;;4969020;28;20043;-83
2021/06/16 08:56:12;;;;;;;5.47;1.30;;;;;;;;;;4970072;28;20069;-83
2021/06/16 08:58:40;;;;;;;3.33;1.20;;;39.60;19.10;;;;;;4969334;28;20050;-83
2021/06/16 09:01:09;;;;;;;1.70;0.70;;;39.90;18.70;;;;;;4965649;28;20114;-83
2021/06/16 09:03:36;;;;;;;4.55;1.00;;;;;;;;;;4967114;28;20030;-83
2021/06/16 09:06:06;;;;;;;1.75;0.90;;;40.00;18.20;;;;;;4968592;28;20635;-85
2021/06/16 09:08:33;;;;;;;1.20;0.93;;;;;;;;;;4968420;28;20415;-83
2021/06/16 09:10:58;;;;;;;;;;;40.30;17.80;;;;;;4969003;28;20039;-82
2021/06/16 09:13:29;;;;;;;;;;;40.20;18.30;;;;;;4973455;28;19969;-87
2021/06/16 09:15:56;;;;;;;4.07;0.85;;;40.30;18.10;;;;;;4970754;28;20395;-85
2021/06/16 09:18:22;;;;;;;4.55;1.08;;;40.80;18.10;;;;;;4968296;28;20045;-83
2021/06/16 09:20:52;;;;;;;1.48;1.20;;;39.20;17.10;;;;;;4968859;28;20688;-84
2021/06/16 09:23:21;;;;;;;1.70;0.85;;;;;;;;;;4972095;28;20037;-83
2021/06/16 09:26:17;;;;;;;3.63;1.13;;;40.80;17.60;;;;;;4971328;28;20027;-84
2021/06/16 09:28:45;;;;;;;6.75;1.45;;;40.50;18.60;;;;;;4968571;28;20030;-86
2021/06/16 09:31:14;;;;;;;2.10;1.35;;;40.60;18.80;;;;;;4965544;28;20078;-85
2021/06/16 09:33:40;;;;;;;1.85;0.80;;;40.80;18.40;;;;;;4966704;28;20082;-84
2021/06/16 09:36:09;;;;;;;;;;;40.80;18.40;;;;;;4964162;28;20043;-85
2021/06/16 09:38:35;;;;;;;3.10;1.10;;;;;;;;;;4964457;28;20521;-85
2021/06/16 09:41:02;;;;;;;4.50;1.73;;;;;;;;;;4970451;28;20480;-85
2021/06/16 09:43:29;;;;;;;2.63;0.98;;;40.80;17.70;;;;;;4972845;28;20037;-89
2021/06/16 09:46:00;;;;;;;2.33;0.88;;;40.90;16.80;;;;;;4956660;28;20513;-89
2021/06/16 09:48:38;;;;;;;2.88;1.67;;;41.20;25.50;;;;;;4967447;28;20038;-83
2021/06/16 09:51:18;;;;;;;1.30;0.82;;;41.10;16.80;;;;;;4968372;28;20037;-85
2021/06/16 09:56:42;;;;;;;3.58;1.10;;;;;;;;;;4965724;28;20802;-84
2021/06/16 09:59:08;;;;;;;1.83;0.80;;;;;;;;;;4967136;28;20038;-84
2021/06/16 10:01:48;;;;;;;;;;;40.80;18.00;;;;;;4970377;28;20034;-84
2021/06/16 10:04:40;;;;;;;3.67;0.93;;;41.90;17.60;;;;;;4970643;28;19964;-85
2021/06/16 10:07:16;;;;;;;9.57;1.40;;;40.20;17.20;;;;;;4952998;28;20778;-84
2021/06/16 10:09:54;;;;;;;;;;;41.20;16.20;;;;;;4969238;28;20113;-85
2021/06/16 10:12:22;;;;;;;2.72;1.35;;;37.90;14.60;;;;;;4969237;28;19910;-84
2021/06/16 10:14:48;;;;;;;3.92;1.30;;;;;;;;;;4967019;28;20038;-84
2021/06/16 10:17:15;;;;;;;3.42;1.00;;;;;;;;;;4967246;28;20050;-84
2021/06/16 10:19:42;;;;;;;2.92;1.33;;;41.20;15.50;;;;;;4950952;28;20122;-85
2021/06/16 10:22:08;;;;;;;1.90;1.20;;;;;;;;;;4966397;28;20031;-84
2021/06/16 10:24:33;;;;;;;;;;;41.20;16.30;;;;;;4966790;28;20023;-84
2021/06/16 10:27:02;;;;;;;2.92;1.20;;;41.40;15.70;;;;;;4967493;28;20287;-84
2021/06/16 10:29:38;;;;;;;3.22;1.38;;;41.30;15.70;;;;;;4966617;28;20022;-84
2021/06/16 10:32:06;;;;;;;2.50;1.33;;;41.50;16.20;;;;;;4965455;28;20118;-85
2021/06/16 10:34:50;;;;;;;1.52;1.00;;;41.30;16.10;;;;;;4965889;28;20150;-84
2021/06/16 10:37:32;;;;;;;3.88;1.00;;;41.90;17.90;;;;;;4965630;28;20029;-85
2021/06/16 10:40:19;;;;;;;3.10;0.80;;;40.90;15.70;;;;;;4967043;28;20499;-86
2021/06/16 10:43:02;;;;;;;4.90;1.80;;;;;;;;;;4968700;28;20026;-84
2021/06/16 10:45:36;;;;;;;2.65;1.10;;;41.50;16.70;;;;;;4968232;28;20048;-84
2021/06/16 10:48:05;;;;;;;3.08;1.40;;;40.30;17.00;;;;;;4966162;28;20034;-85
2021/06/16 10:50:46;;;;;;;1.63;1.00;;;;;;;;;;4965881;28;20073;-85
2021/06/16 10:53:17;;;;;;;4.55;0.93;;;40.00;18.60;;;;;;4965808;28;20042;-85
2021/06/16 10:55:55;;;;;;;2.50;1.55;;;;;;;;;;4966205;28;20396;-83
2021/06/16 10:58:22;;;;;;;1.33;0.77;;;39.50;16.40;;;;;;4968574;28;20030;-83
2021/06/16 11:01:06;;;;;;;1.13;0.98;;;39.00;18.00;;;;;;4966159;28;20045;-85
2021/06/16 11:03:48;;;;;;;4.65;1.08;;;;;;;;;;4966151;28;20117;-87
2021/06/16 11:06:35;;;;;;;2.40;1.85;;;37.50;18.50;;;;;;4966268;28;20587;-84
2021/06/16 11:09:01;;;;;;;1.42;1.00;;;;;;;;;;4966517;28;20031;-84
2021/06/16 11:12:01;;;;;;;3.38;2.60;;;35.70;20.60;;;;;;4966628;28;20105;-85
2021/06/16 11:14:32;;;;;;;3.22;1.65;;;35.30;38.60;;;;;;4960559;28;20046;-85
2021/06/16 11:16:59;;;;;;;2.35;1.05;;;34.80;31.90;;;;;;4951789;28;20031;-85
2021/06/16 11:19:44;;;;;;;3.50;1.67;;;34.90;23.00;;;;;;4952378;28;20027;-85
2021/06/16 11:22:13;;;;;;;4.60;1.35;;;;;;;;;;4968605;28;20086;-84
2021/06/16 11:25:01;;;;;;;3.67;1.58;;;34.10;22.80;;;;;;4965119;28;20039;-84
2021/06/16 11:30:30;;;;;;;5.70;1.38;;;33.70;23.10;;;;;;4965743;28;20035;-85
2021/06/16 11:33:15;;;;;;;5.30;1.90;;;33.30;29.60;;;;;;4964743;28;20058;-85
2021/06/16 11:35:55;;;;;;;1.73;1.10;;;;;;;;;;4964550;28;20514;-88
2021/06/16 11:38:21;;;;;;;2.90;1.67;;;32.90;42.80;;;;;;4969543;28;20026;-86
2021/06/16 11:40:54;;;;;;;3.07;2.17;;;32.70;44.80;;;;;;4968283;28;20395;-86
2021/06/16 11:43:32;;;;;;;1.83;1.20;;;;;;;;;;4952139;28;20114;-86
2021/06/16 11:46:00;;;;;;;2.13;1.05;;;32.70;25.20;;;;;;4969513;28;20089;-87
2021/06/16 11:48:26;;;;;;;7.15;1.90;;;;;;;;;;4962291;28;20035;-87
2021/06/16 11:50:52;;;;;;;1.90;1.70;;;;;;;;;;4967157;28;20131;-88
2021/06/16 11:53:26;;;;;;;6.13;2.30;;;32.30;24.70;;;;;;4966475;28;20035;-87
2021/06/16 11:55:52;;;;;;;2.55;1.85;;;;;;;;;;4966669;28;20047;-85
2021/06/16 11:58:39;;;;;;;4.43;1.33;;;32.30;24.10;;;;;;4968082;28;20114;-84
2021/06/16 12:01:25;;;;;;;2.42;1.20;;;32.30;26.40;;;;;;4968795;28;20026;-89
2021/06/16 12:04:00;;;;;;;1.60;1.23;;;32.20;35.30;;;;;;4971233;28;20301;-88
2021/06/16 12:06:26;;;;;;;6.55;1.92;;;32.10;25.60;;;;;;4949011;28;20062;-85
2021/06/16 12:08:58;;;;;;;3.20;1.77;;;32.10;25.10;;;;;;4965797;28;20498;-84
2021/06/16 12:11:27;;;;;;;3.85;1.83;;;32.10;25.90;;;;;;4965908;28;20130;-84
2021/06/16 12:14:02;;;;;;;2.53;1.85;;;;;;;;;;4966358;28;20034;-85
2021/06/16 12:16:36;;;;;;;5.60;2.55;;;31.90;25.80;;;;;;4968170;28;20515;-84
2021/06/16 12:19:18;;;;;;;2.95;1.75;;;31.90;25.60;;;;;;4949341;28;20031;-88
2021/06/16 12:22:10;;;;;;;2.53;2.08;;;31.90;26.30;;;;;;4965980;28;20034;-85
2021/06/16 12:24:41;;;;;;;5.18;2.00;;;31.80;26.40;;;;;;4961937;28;20043;-84
2021/06/16 12:27:07;;;;;;;8.73;1.88;;;;;;;;;;4948361;28;20031;-84
2021/06/16 12:29:43;;;;;;;2.83;1.93;;;31.70;26.90;;;;;;4966878;28;20085;-89
2021/06/16 12:32:09;;;;;;;1.70;1.37;;;;;;;;;;4965693;28;20067;-83
2021/06/16 12:34:55;;;;;;;2.23;1.70;;;;;;;;;;4968086;28;20038;-82
2021/06/16 12:37:21;;;;;;;2.83;1.73;;;;;;;;;;4951945;28;20031;-84
2021/06/16 12:40:07;;;;;;;9.30;2.13;;;31.80;25.80;;;;;;4967678;28;20027;-84
2021/06/16 12:42:37;;;;;;;3.08;1.55;;;31.80;26.30;;;;;;4967349;28;20035;-84
2021/06/16 12:45:04;;;;;;;3.65;2.38;;;;;;;;;;4951492;28;20448;-85
2021/06/16 12:47:33;;;;;;;5.05;2.20;;;;;;;;;;4969165;28;20050;-84
2021/06/16 12:50:00;;;;;;;5.60;2.22;;;;;;;;;;4975618;28;20031;-89
2021/06/16 12:52:35;;;;;;;4.35;1.75;;;31.80;26.50;;;;;;4969361;28;20086;-85
2021/06/16 12:55:26;;;;;;;2.70;1.92;;;31.70;27.00;;;;;;4969682;28;20503;-86
2021/06/16 12:57:54;;;;;;;2.95;2.03;;;32.20;27.90;;;;;;4966179;28;20134;-84
2021/06/16 13:00:26;;;;;;;3.95;2.50;;;31.40;27.70;;;;;;4968641;28;20102;-86
2021/06/16 13:02:52;;;;;;;2.90;2.05;;;31.50;28.30;;;;;;4969627;28;20035;-88
2021/06/16 13:05:26;;;;;;;5.63;1.88;;;;;;;;;;4971544;28;20121;-90
2021/06/16 13:07:54;;;;;;;3.47;2.08;;;;;;;;;;4969566;28;20042;-92
2021/06/16 13:10:26;;;;;;;4.30;2.65;;;;;;;;;;4954831;28;20054;-87
2021/06/16 13:12:55;;;;;;;3.78;2.42;;;;;;;;;;4968059;28;20026;-86
2021/06/16 13:15:21;;;;;;;6.80;2.47;;;;;;;;;;4969247;28;20039;-86
2021/06/16 13:17:52;;;;;;;4.38;2.60;;;31.30;28.20;;;;;;4966786;28;20041;-86
2021/06/16 13:20:31;;;;;;;4.30;2.50;;;31.30;28.60;;;;;;4948710;29;20046;-88
2021/06/16 13:22:57;;;;;;;6.38;2.63;;;;;;;;;;4971639;28;20529;-87
2021/06/16 13:25:29;;;;;;;3.25;2.17;;;31.10;28.10;;;;;;4967111;28;20042;-86
2021/06/16 13:28:00;;;;;;;4.38;2.28;;;31.10;28.80;;;;;;4963609;28;20126;-86
2021/06/16 13:30:27;;;;;;;4.55;2.60;;;30.90;27.30;;;;;;4971949;28;20047;-85
2021/06/16 13:32:53;;;;;;;3.53;2.38;;;;;;;;;;4971716;28;20054;-86
2021/06/16 13:35:19;;;;;;;2.85;1.95;;;;;;;;;;4970611;28;20035;-86
2021/06/16 13:37:59;;;;;;;9.18;2.90;;;;;;;;;;4967364;28;20106;-93
2021/06/16 13:40:25;;;;;;;3.85;2.58;;;;;;;;;;4950500;28;20581;-90
2021/06/16 13:42:54;;;;;;;5.05;2.55;;;;;;;;;;4970881;28;20058;-93
2021/06/16 13:45:21;;;;;;;3.35;2.47;;;;;;;;;;4972110;28;20027;-95
2021/06/16 13:48:11;;;;;;;5.32;3.35;;;;;;;;;;4951222;28;20615;-93
2021/06/16 13:50:37;;;;;;;4.13;2.50;;;;;;;;;;4964526;28;20053;-87
2021/06/16 13:53:03;;;;;;;6.53;2.67;;;;;;;;;;4970069;28;20414;-88
2021/06/16 13:55:29;;;;;;;4.13;2.33;;;;;;;;;;4969615;28;20744;-86
2021/06/16 13:57:55;;;;;;;3.88;2.28;;;;;;;;;;4947629;28;20170;-85
2021/06/16 14:00:21;;;;;;;3.50;2.08;;;;;;;;;;4965021;28;20065;-87
2021/06/16 14:02:47;;;;;;;4.83;2.60;;;;;;;;;;4963919;28;20758;-85
2021/06/16 14:05:13;;;;;;;3.00;2.20;;;;;;;;;;4967924;28;20035;-86
2021/06/16 14:07:40;;;;;;;3.50;2.78;;;;;;;;;;4966275;28;20023;-86
2021/06/16 14:10:07;;;;;;;5.38;2.78;;;;;;;;;;4966189;28;20056;-85
2021/06/16 14:12:33;;;;;;;5.80;2.28;;;30.70;28.90;;;;;;4959091;28;20173;-87
2021/06/16 14:14:59;;;;;;;6.47;3.17;;;;;;;;;;4950869;28;20051;-87
2021/06/16 14:17:25;;;;;;;3.22;2.22;;;;;;;;;;4964916;28;20416;-86
2021/06/16 14:19:51;;;;;;;4.65;2.80;;;;;;;;;;4966638;28;20041;-86
2021/06/16 14:22:17;;;;;;;4.28;2.60;;;;;;;;;;4962352;28;20038;-86